sensor_id;sensor_type;location;lat;lon;timestamp;pressure;altitude;pressure_sealevel;temperature;humidity
60489;BME280;46331;49.252;8.904;2023-03-01T00:00:05;100684.13;;;-0.65;67.21
60489;BME280;46331;49.252;8.904;2023-03-01T00:00:51;100680.41;;;-0.62;66.77
60489;BME280;46331;49.252;8.904;2023-03-01T00:01:32;100681.22;;;-0.62;66.78
60489;BME280;46331;49.252;8.904;2023-03-01T00:02:13;100681.09;;;-0.60;66.79
60489;BME280;46331;49.252;8.904;2023-03-01T00:02:53;100677.81;;;-0.62;66.52
60489;BME280;46331;49.252;8.904;2023-03-01T00:03:34;100678.47;;;-0.60;66.96
60489;BME280;46331;49.252;8.904;2023-03-01T00:04:15;100678.47;;;-0.60;66.76
60489;BME280;46331;49.252;8.904;2023-03-01T00:04:56;100675.34;;;-0.64;66.71
60489;BME280;46331;49.252;8.904;2023-03-01T00:05:43;100683.03;;;-0.62;66.65
60489;BME280;46331;49.252;8.904;2023-03-01T00:06:25;100675.88;;;-0.60;66.69
60489;BME280;46331;49.252;8.904;2023-03-01T00:07:05;100680.13;;;-0.59;66.96
60489;BME280;46331;49.252;8.904;2023-03-01T00:07:46;100675.88;;;-0.50;66.55
60489;BME280;46331;49.252;8.904;2023-03-01T00:08:27;100673.13;;;-0.49;66.65
60489;BME280;46331;49.252;8.904;2023-03-01T00:09:08;100668.72;;;-0.48;66.62
60489;BME280;46331;49.252;8.904;2023-03-01T00:09:48;100675.72;;;-0.49;66.29
60489;BME280;46331;49.252;8.904;2023-03-01T00:10:29;100673.78;;;-0.47;66.15
60489;BME280;46331;49.252;8.904;2023-03-01T00:11:17;100671.47;;;-0.50;66.12
60489;BME280;46331;49.252;8.904;2023-03-01T00:11:58;100681.63;;;-0.47;66.35
60489;BME280;46331;49.252;8.904;2023-03-01T00:12:38;100669.00;;;-0.51;66.40
60489;BME280;46331;49.252;8.904;2023-03-01T00:13:19;100672.13;;;-0.48;66.37
60489;BME280;46331;49.252;8.904;2023-03-01T00:14:01;100676.13;;;-0.44;66.43
60489;BME280;46331;49.252;8.904;2023-03-01T00:14:42;100666.94;;;-0.48;66.31
60489;BME280;46331;49.252;8.904;2023-03-01T00:15:22;100678.59;;;-0.42;66.15
60489;BME280;46331;49.252;8.904;2023-03-01T00:16:04;100680.25;;;-0.41;65.95
60489;BME280;46331;49.252;8.904;2023-03-01T00:16:46;100679.00;;;-0.47;66.35
60489;BME280;46331;49.252;8.904;2023-03-01T00:17:27;100668.81;;;-0.40;66.13
60489;BME280;46331;49.252;8.904;2023-03-01T00:18:08;100668.03;;;-0.41;66.13
60489;BME280;46331;49.252;8.904;2023-03-01T00:18:48;100672.28;;;-0.40;66.01
60489;BME280;46331;49.252;8.904;2023-03-01T00:19:29;100665.69;;;-0.44;66.27
60489;BME280;46331;49.252;8.904;2023-03-01T00:20:10;100674.19;;;-0.42;66.09
60489;BME280;46331;49.252;8.904;2023-03-01T00:20:55;100671.72;;;-0.43;66.14
60489;BME280;46331;49.252;8.904;2023-03-01T00:21:35;100670.91;;;-0.44;66.29
60489;BME280;46331;49.252;8.904;2023-03-01T00:22:16;100667.34;;;-0.43;66.54
60489;BME280;46331;49.252;8.904;2023-03-01T00:22:56;100672.56;;;-0.43;66.34
60489;BME280;46331;49.252;8.904;2023-03-01T00:23:38;100670.09;;;-0.44;66.46
60489;BME280;46331;49.252;8.904;2023-03-01T00:24:18;100670.34;;;-0.38;66.04
60489;BME280;46331;49.252;8.904;2023-03-01T00:24:59;100664.88;;;-0.44;66.41
60489;BME280;46331;49.252;8.904;2023-03-01T00:25:43;100680.75;;;-0.38;66.16
60489;BME280;46331;49.252;8.904;2023-03-01T00:26:24;100674.31;;;-0.33;65.93
60489;BME280;46331;49.252;8.904;2023-03-01T00:27:05;100678.53;;;-0.32;66.06
60489;BME280;46331;49.252;8.904;2023-03-01T00:27:46;100688.00;;;-0.31;65.91
60489;BME280;46331;49.252;8.904;2023-03-01T00:28:29;100677.72;;;-0.33;65.83
60489;BME280;46331;49.252;8.904;2023-03-01T00:29:09;100681.44;;;-0.36;65.90
60489;BME280;46331;49.252;8.904;2023-03-01T00:29:50;100680.09;;;-0.40;66.00
60489;BME280;46331;49.252;8.904;2023-03-01T00:30:30;100678.72;;;-0.44;66.51
60489;BME280;46331;49.252;8.904;2023-03-01T00:31:16;100681.34;;;-0.44;66.37
60489;BME280;46331;49.252;8.904;2023-03-01T00:31:57;100677.34;;;-0.48;66.37
60489;BME280;46331;49.252;8.904;2023-03-01T00:32:38;100670.38;;;-0.47;66.19
60489;BME280;46331;49.252;8.904;2023-03-01T00:33:19;100676.81;;;-0.51;66.27
60489;BME280;46331;49.252;8.904;2023-03-01T00:34:01;100673.84;;;-0.57;66.92
60489;BME280;46331;49.252;8.904;2023-03-01T00:34:42;100673.28;;;-0.60;66.75
60489;BME280;46331;49.252;8.904;2023-03-01T00:35:29;100683.56;;;-0.59;67.33
60489;BME280;46331;49.252;8.904;2023-03-01T00:36:11;100686.84;;;-0.57;66.82
60489;BME280;46331;49.252;8.904;2023-03-01T00:36:52;100682.06;;;-0.61;66.43
60489;BME280;46331;49.252;8.904;2023-03-01T00:37:33;100680.94;;;-0.59;66.77
60489;BME280;46331;49.252;8.904;2023-03-01T00:38:14;100674.53;;;-0.64;66.40
60489;BME280;46331;49.252;8.904;2023-03-01T00:38:54;100677.38;;;-0.58;66.79
60489;BME280;46331;49.252;8.904;2023-03-01T00:39:35;100674.94;;;-0.59;67.01
60489;BME280;46331;49.252;8.904;2023-03-01T00:40:16;100675.72;;;-0.59;66.68
60489;BME280;46331;49.252;8.904;2023-03-01T00:41:03;100672.31;;;-0.59;67.06
60489;BME280;46331;49.252;8.904;2023-03-01T00:41:44;100673.13;;;-0.59;66.89
60489;BME280;46331;49.252;8.904;2023-03-01T00:42:25;100672.84;;;-0.56;66.92
60489;BME280;46331;49.252;8.904;2023-03-01T00:43:05;100677.38;;;-0.58;67.03
60489;BME280;46331;49.252;8.904;2023-03-01T00:43:46;100672.19;;;-0.58;66.77
60489;BME280;46331;49.252;8.904;2023-03-01T00:44:26;100669.16;;;-0.53;66.67
60489;BME280;46331;49.252;8.904;2023-03-01T00:45:08;100672.28;;;-0.49;66.48
60489;BME280;46331;49.252;8.904;2023-03-01T00:45:49;100672.72;;;-0.54;66.70
60489;BME280;46331;49.252;8.904;2023-03-01T00:46:29;100667.91;;;-0.49;66.62
60489;BME280;46331;49.252;8.904;2023-03-01T00:47:10;100672.44;;;-0.51;66.67
60489;BME280;46331;49.252;8.904;2023-03-01T00:47:51;100674.09;;;-0.50;66.53
60489;BME280;46331;49.252;8.904;2023-03-01T00:48:32;100669.16;;;-0.53;66.42
60489;BME280;46331;49.252;8.904;2023-03-01T00:49:13;100675.88;;;-0.60;67.18
60489;BME280;46331;49.252;8.904;2023-03-01T00:49:53;100679.03;;;-0.57;66.87
60489;BME280;46331;49.252;8.904;2023-03-01T00:50:34;100677.09;;;-0.55;66.75
60489;BME280;46331;49.252;8.904;2023-03-01T00:51:18;100678.91;;;-0.55;66.86
60489;BME280;46331;49.252;8.904;2023-03-01T00:51:59;100688.47;;;-0.56;66.63
60489;BME280;46331;49.252;8.904;2023-03-01T00:52:39;100685.34;;;-0.59;67.20
60489;BME280;46331;49.252;8.904;2023-03-01T00:53:20;100680.56;;;-0.64;66.87
60489;BME280;46331;49.252;8.904;2023-03-01T00:54:02;100686.84;;;-0.57;66.71
60489;BME280;46331;49.252;8.904;2023-03-01T00:54:43;100686.84;;;-0.57;66.72
60489;BME280;46331;49.252;8.904;2023-03-01T00:55:24;100682.75;;;-0.59;66.91
60489;BME280;46331;49.252;8.904;2023-03-01T00:56:06;100681.09;;;-0.60;66.54
60489;BME280;46331;49.252;8.904;2023-03-01T00:56:47;100686.16;;;-0.59;66.85
60489;BME280;46331;49.252;8.904;2023-03-01T00:57:28;100685.50;;;-0.61;67.18
60489;BME280;46331;49.252;8.904;2023-03-01T00:58:08;100690.69;;;-0.61;67.02
60489;BME280;46331;49.252;8.904;2023-03-01T00:58:49;100682.75;;;-0.59;67.02
60489;BME280;46331;49.252;8.904;2023-03-01T00:59:29;100688.22;;;-0.62;66.65
60489;BME280;46331;49.252;8.904;2023-03-01T01:00:10;100695.09;;;-0.61;66.59
60489;BME280;46331;49.252;8.904;2023-03-01T01:00:51;100690.16;;;-0.64;66.94
60489;BME280;46331;49.252;8.904;2023-03-01T01:01:32;100695.09;;;-0.61;66.81
60489;BME280;46331;49.252;8.904;2023-03-01T01:02:13;100686.44;;;-0.62;67.07
60489;BME280;46331;49.252;8.904;2023-03-01T01:02:54;100693.84;;;-0.57;66.65
60489;BME280;46331;49.252;8.904;2023-03-01T01:03:35;100695.47;;;-0.56;66.62
60489;BME280;46331;49.252;8.904;2023-03-01T01:04:15;100693.31;;;-0.61;66.77
60489;BME280;46331;49.252;8.904;2023-03-01T01:04:56;100689.03;;;-0.62;67.11
60489;BME280;46331;49.252;8.904;2023-03-01T01:05:37;100687.00;;;-0.58;66.69
60489;BME280;46331;49.252;8.904;2023-03-01T01:06:20;100693.03;;;-0.58;66.71
60489;BME280;46331;49.252;8.904;2023-03-01T01:07:01;100690.41;;;-0.58;66.79
60489;BME280;46331;49.252;8.904;2023-03-01T01:07:41;100692.06;;;-0.57;66.61
60489;BME280;46331;49.252;8.904;2023-03-01T01:08:22;100686.56;;;-0.63;66.70
60489;BME280;46331;49.252;8.904;2023-03-01T01:09:05;100691.38;;;-0.59;66.95
60489;BME280;46331;49.252;8.904;2023-03-01T01:09:46;100686.44;;;-0.52;67.41
60489;BME280;46331;49.252;8.904;2023-03-01T01:10:27;100680.94;;;-0.49;67.21
60489;BME280;46331;49.252;8.904;2023-03-01T01:11:09;100683.94;;;-0.44;68.39
60489;BME280;46331;49.252;8.904;2023-03-01T01:11:50;100677.22;;;-0.46;67.46
60489;BME280;46331;49.252;8.904;2023-03-01T01:12:31;100678.34;;;-0.49;67.18
60489;BME280;46331;49.252;8.904;2023-03-01T01:13:14;100676.81;;;-0.51;67.33
60489;BME280;46331;49.252;8.904;2023-03-01T01:13:55;100685.06;;;-0.56;67.07
60489;BME280;46331;49.252;8.904;2023-03-01T01:14:36;100680.81;;;-0.57;67.23
60489;BME280;46331;49.252;8.904;2023-03-01T01:15:16;100672.19;;;-0.58;66.89
60489;BME280;46331;49.252;8.904;2023-03-01T01:16:01;100672.44;;;-0.51;66.95
60489;BME280;46331;49.252;8.904;2023-03-01T01:16:42;100675.88;;;-0.50;66.65
60489;BME280;46331;49.252;8.904;2023-03-01T01:17:22;100668.72;;;-0.48;66.60
60489;BME280;46331;49.252;8.904;2023-03-01T01:18:03;100668.72;;;-0.48;66.58
60489;BME280;46331;49.252;8.904;2023-03-01T01:18:44;100672.56;;;-0.52;66.88
60489;BME280;46331;49.252;8.904;2023-03-01T01:19:25;100670.94;;;-0.53;66.71
60489;BME280;46331;49.252;8.904;2023-03-01T01:20:07;100673.00;;;-0.57;67.07
60489;BME280;46331;49.252;8.904;2023-03-01T01:20:47;100667.91;;;-0.59;66.90
60489;BME280;46331;49.252;8.904;2023-03-01T01:21:29;100662.72;;;-0.59;66.59
60489;BME280;46331;49.252;8.904;2023-03-01T01:22:10;100665.47;;;-0.60;66.93
60489;BME280;46331;49.252;8.904;2023-03-01T01:22:50;100654.38;;;-0.62;67.09
60489;BME280;46331;49.252;8.904;2023-03-01T01:23:31;100655.31;;;-0.63;66.84
60489;BME280;46331;49.252;8.904;2023-03-01T01:24:12;100656.03;;;-0.61;66.95
60489;BME280;46331;49.252;8.904;2023-03-01T01:24:52;100665.59;;;-0.62;66.80
60489;BME280;46331;49.252;8.904;2023-03-01T01:25:35;100656.31;;;-0.64;66.95
60489;BME280;46331;49.252;8.904;2023-03-01T01:26:20;100655.06;;;-0.70;67.05
60489;BME280;46331;49.252;8.904;2023-03-01T01:27:01;100658.91;;;-0.74;67.25
60489;BME280;46331;49.252;8.904;2023-03-01T01:27:41;100661.22;;;-0.71;67.12
60489;BME280;46331;49.252;8.904;2023-03-01T01:28:23;100660.00;;;-0.67;66.98
60489;BME280;46331;49.252;8.904;2023-03-01T01:29:04;100653.97;;;-0.67;67.31
60489;BME280;46331;49.252;8.904;2023-03-01T01:29:45;100660.81;;;-0.66;67.11
60489;BME280;46331;49.252;8.904;2023-03-01T01:30:25;100661.09;;;-0.69;67.50
60489;BME280;46331;49.252;8.904;2023-03-01T01:31:07;100657.53;;;-0.68;67.30
60489;BME280;46331;49.252;8.904;2023-03-01T01:31:47;100647.25;;;-0.70;67.34
60489;BME280;46331;49.252;8.904;2023-03-01T01:32:28;100655.22;;;-0.72;67.39
60489;BME280;46331;49.252;8.904;2023-03-01T01:33:09;100652.59;;;-0.72;67.75
60489;BME280;46331;49.252;8.904;2023-03-01T01:33:51;100649.59;;;-0.77;67.62
60489;BME280;46331;49.252;8.904;2023-03-01T01:34:32;100649.47;;;-0.75;67.36
60489;BME280;46331;49.252;8.904;2023-03-01T01:35:12;100646.72;;;-0.74;67.46
60489;BME280;46331;49.252;8.904;2023-03-01T01:35:53;100637.78;;;-0.71;67.55
60489;BME280;46331;49.252;8.904;2023-03-01T01:36:34;100637.94;;;-0.73;67.14
60489;BME280;46331;49.252;8.904;2023-03-01T01:37:15;100643.00;;;-0.71;67.47
60489;BME280;46331;49.252;8.904;2023-03-01T01:37:55;100644.13;;;-0.74;67.38
60489;BME280;46331;49.252;8.904;2023-03-01T01:38:37;100644.41;;;-0.77;67.53
60489;BME280;46331;49.252;8.904;2023-03-01T01:39:18;100642.56;;;-0.66;67.41
60489;BME280;46331;49.252;8.904;2023-03-01T01:39:59;100639.69;;;-0.63;67.27
60489;BME280;46331;49.252;8.904;2023-03-01T01:40:47;100640.94;;;-0.67;67.15
60489;BME280;46331;49.252;8.904;2023-03-01T01:41:29;100643.00;;;-0.61;67.00
60489;BME280;46331;49.252;8.904;2023-03-01T01:42:17;100640.38;;;-0.61;67.15
60489;BME280;46331;49.252;8.904;2023-03-01T01:42:58;100644.47;;;-0.59;66.81
60489;BME280;46331;49.252;8.904;2023-03-01T01:43:43;100637.50;;;-0.58;67.15
60489;BME280;46331;49.252;8.904;2023-03-01T01:44:26;100641.06;;;-0.59;66.97
60489;BME280;46331;49.252;8.904;2023-03-01T01:47:07;100638.88;;;-0.64;66.95
60489;BME280;46331;49.252;8.904;2023-03-01T01:47:55;100637.50;;;-0.68;67.20
60489;BME280;46331;49.252;8.904;2023-03-01T01:48:42;100636.94;;;-0.62;66.97
60489;BME280;46331;49.252;8.904;2023-03-01T01:49:28;100628.19;;;-0.61;67.10
60489;BME280;46331;49.252;8.904;2023-03-01T01:50:16;100634.75;;;-0.66;66.93
60489;BME280;46331;49.252;8.904;2023-03-01T01:51:00;100625.84;;;-0.64;67.12
60489;BME280;46331;49.252;8.904;2023-03-01T01:51:43;100632.44;;;-0.69;67.40
60489;BME280;46331;49.252;8.904;2023-03-01T01:52:36;100628.47;;;-0.64;67.31
60489;BME280;46331;49.252;8.904;2023-03-01T01:53:18;100625.19;;;-0.66;67.19
60489;BME280;46331;49.252;8.904;2023-03-01T01:54:00;100627.94;;;-0.67;67.28
60489;BME280;46331;49.252;8.904;2023-03-01T01:55:26;100625.59;;;-0.70;67.36
60489;BME280;46331;49.252;8.904;2023-03-01T01:56:08;100625.88;;;-0.74;67.29
60489;BME280;46331;49.252;8.904;2023-03-01T01:56:56;100623.28;;;-0.74;67.22
60489;BME280;46331;49.252;8.904;2023-03-01T01:57:43;100633.97;;;-0.77;67.31
60489;BME280;46331;49.252;8.904;2023-03-01T01:58:27;100628.22;;;-0.80;67.70
60489;BME280;46331;49.252;8.904;2023-03-01T01:59:10;100622.63;;;-0.85;67.85
60489;BME280;46331;49.252;8.904;2023-03-01T01:59:55;100629.63;;;-0.86;67.79
60489;BME280;46331;49.252;8.904;2023-03-01T02:00:37;100628.34;;;-0.82;67.63
60489;BME280;46331;49.252;8.904;2023-03-01T02:01:19;100628.34;;;-0.82;67.55
60489;BME280;46331;49.252;8.904;2023-03-01T02:02:01;100617.28;;;-0.84;67.59
60489;BME280;46331;49.252;8.904;2023-03-01T02:02:44;100629.63;;;-0.86;67.43
60489;BME280;46331;49.252;8.904;2023-03-01T02:03:28;100624.41;;;-0.86;67.55
60489;BME280;46331;49.252;8.904;2023-03-01T02:04:13;100623.56;;;-0.86;67.74
60489;BME280;46331;49.252;8.904;2023-03-01T02:05:03;100616.19;;;-0.91;67.81
60489;BME280;46331;49.252;8.904;2023-03-01T02:06:55;100614.00;;;-0.86;67.96
60489;BME280;46331;49.252;8.904;2023-03-01T02:07:39;100614.69;;;-0.94;68.22
60489;BME280;46331;49.252;8.904;2023-03-01T02:08:21;100609.50;;;-0.94;68.01
60489;BME280;46331;49.252;8.904;2023-03-01T02:09:13;100609.47;;;-0.84;68.14
60489;BME280;46331;49.252;8.904;2023-03-01T02:09:54;100603.56;;;-0.86;68.15
60489;BME280;46331;49.252;8.904;2023-03-01T02:10:35;100607.38;;;-0.80;67.91
60489;BME280;46331;49.252;8.904;2023-03-01T02:11:18;100599.44;;;-0.79;67.91
60489;BME280;46331;49.252;8.904;2023-03-01T02:11:59;100606.00;;;-0.75;67.55
60489;BME280;46331;49.252;8.904;2023-03-01T02:12:40;100601.88;;;-0.77;67.81
60489;BME280;46331;49.252;8.904;2023-03-01T02:13:21;100597.38;;;-0.85;67.77
60489;BME280;46331;49.252;8.904;2023-03-01T02:14:01;100606.56;;;-0.81;67.79
60489;BME280;46331;49.252;8.904;2023-03-01T02:14:43;100603.72;;;-0.87;67.57
60489;BME280;46331;49.252;8.904;2023-03-01T02:15:24;100601.50;;;-0.82;67.82
60489;BME280;46331;49.252;8.904;2023-03-01T02:16:13;100603.00;;;-0.80;67.84
60489;BME280;46331;49.252;8.904;2023-03-01T02:16:54;100598.22;;;-0.84;68.10
60489;BME280;46331;49.252;8.904;2023-03-01T02:17:35;100599.19;;;-0.85;68.03
60489;BME280;46331;49.252;8.904;2023-03-01T02:18:18;100591.50;;;-0.87;68.06
60489;BME280;46331;49.252;8.904;2023-03-01T02:18:59;100592.47;;;-0.88;67.94
60489;BME280;46331;49.252;8.904;2023-03-01T02:20:35;100592.88;;;-0.83;67.99
60489;BME280;46331;49.252;8.904;2023-03-01T02:22:22;100601.41;;;-0.91;67.72
60489;BME280;46331;49.252;8.904;2023-03-01T02:23:04;100597.13;;;-0.92;67.88
60489;BME280;46331;49.252;8.904;2023-03-01T02:23:46;100590.69;;;-0.97;67.84
60489;BME280;46331;49.252;8.904;2023-03-01T02:24:39;100600.84;;;-0.94;67.88
60489;BME280;46331;49.252;8.904;2023-03-01T02:27:00;100593.06;;;-1.04;68.37
60489;BME280;46331;49.252;8.904;2023-03-01T02:27:52;100590.72;;;-1.07;68.64
60489;BME280;46331;49.252;8.904;2023-03-01T02:28:37;100590.88;;;-1.09;68.32
60489;BME280;46331;49.252;8.904;2023-03-01T02:29:19;100587.72;;;-1.12;68.34
60489;BME280;46331;49.252;8.904;2023-03-01T02:30:00;100585.41;;;-1.15;68.89
60489;BME280;46331;49.252;8.904;2023-03-01T02:30:42;100581.97;;;-1.16;68.75
60489;BME280;46331;49.252;8.904;2023-03-01T02:31:44;100576.50;;;-1.22;68.77
60489;BME280;46331;49.252;8.904;2023-03-01T02:32:26;100582.66;;;-1.23;68.83
60489;BME280;46331;49.252;8.904;2023-03-01T02:33:06;100585.69;;;-1.28;68.80
60489;BME280;46331;49.252;8.904;2023-03-01T02:33:47;100585.00;;;-1.30;69.52
60489;BME280;46331;49.252;8.904;2023-03-01T02:34:30;100585.13;;;-1.32;69.33
60489;BME280;46331;49.252;8.904;2023-03-01T02:35:13;100582.81;;;-1.35;69.33
60489;BME280;46331;49.252;8.904;2023-03-01T02:35:55;100582.28;;;-1.38;69.86
60489;BME280;46331;49.252;8.904;2023-03-01T02:36:39;100589.38;;;-1.40;70.29
60489;BME280;46331;49.252;8.904;2023-03-01T02:37:21;100578.97;;;-1.40;70.14
60489;BME280;46331;49.252;8.904;2023-03-01T02:38:07;100577.34;;;-1.41;69.97
60489;BME280;46331;49.252;8.904;2023-03-01T02:38:51;100580.09;;;-1.43;70.11
60489;BME280;46331;49.252;8.904;2023-03-01T02:39:40;100574.03;;;-1.44;70.16
60489;BME280;46331;49.252;8.904;2023-03-01T02:40:22;100575.69;;;-1.42;70.02
60489;BME280;46331;49.252;8.904;2023-03-01T02:41:05;100575.97;;;-1.46;70.27
60489;BME280;46331;49.252;8.904;2023-03-01T02:41:50;100572.69;;;-1.48;70.51
60489;BME280;46331;49.252;8.904;2023-03-01T02:42:36;100575.31;;;-1.48;70.50
60489;BME280;46331;49.252;8.904;2023-03-01T02:43:22;100574.59;;;-1.50;70.60
60489;BME280;46331;49.252;8.904;2023-03-01T02:44:04;100575.72;;;-1.52;70.89
60489;BME280;46331;49.252;8.904;2023-03-01T02:44:45;100582.53;;;-1.51;70.36
60489;BME280;46331;49.252;8.904;2023-03-01T02:45:26;100579.81;;;-1.50;70.66
60489;BME280;46331;49.252;8.904;2023-03-01T02:46:14;100580.63;;;-1.49;71.03
60489;BME280;46331;49.252;8.904;2023-03-01T02:46:56;100576.66;;;-1.53;71.39
60489;BME280;46331;49.252;8.904;2023-03-01T02:47:38;100574.88;;;-1.53;70.71
60489;BME280;46331;49.252;8.904;2023-03-01T02:48:19;100580.06;;;-1.53;70.79
60489;BME280;46331;49.252;8.904;2023-03-01T02:49:01;100579.25;;;-1.53;71.10
60489;BME280;46331;49.252;8.904;2023-03-01T02:49:42;100578.19;;;-1.51;70.92
60489;BME280;46331;49.252;8.904;2023-03-01T02:52:04;100572.00;;;-1.50;70.64
60489;BME280;46331;49.252;8.904;2023-03-01T02:52:44;100570.78;;;-1.55;71.37
60489;BME280;46331;49.252;8.904;2023-03-01T02:54:21;100571.59;;;-1.55;70.85
60489;BME280;46331;49.252;8.904;2023-03-01T02:55:36;100564.88;;;-1.57;70.83
60489;BME280;46331;49.252;8.904;2023-03-01T02:56:17;100570.22;;;-1.59;71.06
60489;BME280;46331;49.252;8.904;2023-03-01T02:56:58;100564.06;;;-1.58;71.01
60489;BME280;46331;49.252;8.904;2023-03-01T02:57:43;100569.94;;;-1.56;71.61
60489;BME280;46331;49.252;8.904;2023-03-01T02:58:24;100569.13;;;-1.56;70.87
60489;BME280;46331;49.252;8.904;2023-03-01T02:59:05;100566.66;;;-1.58;70.86
60489;BME280;46331;49.252;8.904;2023-03-01T02:59:46;100574.47;;;-1.58;70.84
60489;BME280;46331;49.252;8.904;2023-03-01T03:00:33;100563.41;;;-1.60;71.10
60489;BME280;46331;49.252;8.904;2023-03-01T03:01:15;100559.81;;;-1.59;71.18
60489;BME280;46331;49.252;8.904;2023-03-01T03:01:56;100569.41;;;-1.59;71.08
60489;BME280;46331;49.252;8.904;2023-03-01T03:02:37;100563.25;;;-1.58;70.93
60489;BME280;46331;49.252;8.904;2023-03-01T03:03:35;100561.59;;;-1.59;71.04
60489;BME280;46331;49.252;8.904;2023-03-01T03:04:18;100562.28;;;-1.57;71.10
60489;BME280;46331;49.252;8.904;2023-03-01T03:05:26;100557.91;;;-1.57;70.68
60489;BME280;46331;49.252;8.904;2023-03-01T03:06:10;100563.13;;;-1.57;70.73
60489;BME280;46331;49.252;8.904;2023-03-01T03:06:50;100559.81;;;-1.59;70.83
60489;BME280;46331;49.252;8.904;2023-03-01T03:07:33;100554.88;;;-1.62;70.86
60489;BME280;46331;49.252;8.904;2023-03-01T03:08:15;100554.34;;;-1.56;70.62
60489;BME280;46331;49.252;8.904;2023-03-01T03:09:04;100557.66;;;-1.54;71.00
60489;BME280;46331;49.252;8.904;2023-03-01T03:09:45;100559.00;;;-1.50;70.74
60489;BME280;46331;49.252;8.904;2023-03-01T03:10:29;100555.44;;;-1.49;70.62
60489;BME280;46331;49.252;8.904;2023-03-01T03:11:11;100552.16;;;-1.51;70.54
60489;BME280;46331;49.252;8.904;2023-03-01T03:11:51;100551.47;;;-1.53;70.29
60489;BME280;46331;49.252;8.904;2023-03-01T03:12:32;100552.69;;;-1.47;70.15
60489;BME280;46331;49.252;8.904;2023-03-01T03:13:14;100549.97;;;-1.46;70.19
60489;BME280;46331;49.252;8.904;2023-03-01T03:13:55;100545.03;;;-1.49;70.20
60489;BME280;46331;49.252;8.904;2023-03-01T03:14:36;100551.19;;;-1.50;70.44
60489;BME280;46331;49.252;8.904;2023-03-01T03:15:17;100551.31;;;-1.51;70.11
60489;BME280;46331;49.252;8.904;2023-03-01T03:15:58;100545.59;;;-1.55;70.68
60489;BME280;46331;49.252;8.904;2023-03-01T03:16:43;100546.81;;;-1.59;71.22
60489;BME280;46331;49.252;8.904;2023-03-01T03:17:24;100548.75;;;-1.61;70.66
60489;BME280;46331;49.252;8.904;2023-03-01T03:18:08;100547.22;;;-1.64;70.87
60489;BME280;46331;49.252;8.904;2023-03-01T03:18:49;100548.34;;;-1.66;70.72
60489;BME280;46331;49.252;8.904;2023-03-01T03:19:30;100545.75;;;-1.66;71.21
60489;BME280;46331;49.252;8.904;2023-03-01T03:20:11;100551.06;;;-1.68;71.28
60489;BME280;46331;49.252;8.904;2023-03-01T03:20:59;100545.03;;;-1.68;71.55
60489;BME280;46331;49.252;8.904;2023-03-01T03:21:39;100540.69;;;-1.68;71.19
60489;BME280;46331;49.252;8.904;2023-03-01T03:22:20;100540.69;;;-1.68;71.67
60489;BME280;46331;49.252;8.904;2023-03-01T03:23:01;100544.50;;;-1.72;71.11
60489;BME280;46331;49.252;8.904;2023-03-01T03:23:41;100542.28;;;-1.67;71.28
60489;BME280;46331;49.252;8.904;2023-03-01T03:24:22;100548.47;;;-1.68;71.11
60489;BME280;46331;49.252;8.904;2023-03-01T03:25:03;100546.97;;;-1.70;71.14
60489;BME280;46331;49.252;8.904;2023-03-01T03:25:43;100551.88;;;-1.67;71.32
60489;BME280;46331;49.252;8.904;2023-03-01T03:26:24;100547.50;;;-1.67;71.41
60489;BME280;46331;49.252;8.904;2023-03-01T03:27:05;100542.59;;;-1.60;71.83
60489;BME280;46331;49.252;8.904;2023-03-01T03:27:47;100542.31;;;-1.57;71.15
60489;BME280;46331;49.252;8.904;2023-03-01T03:28:28;100540.66;;;-1.58;70.89
60489;BME280;46331;49.252;8.904;2023-03-01T03:29:09;100544.91;;;-1.57;71.22
60489;BME280;46331;49.252;8.904;2023-03-01T03:29:49;100543.94;;;-1.56;70.76
60489;BME280;46331;49.252;8.904;2023-03-01T03:30:31;100543.53;;;-1.51;70.45
60489;BME280;46331;49.252;8.904;2023-03-01T03:31:11;100548.19;;;-1.55;71.12
60489;BME280;46331;49.252;8.904;2023-03-01T03:31:52;100543.41;;;-1.59;71.45
60489;BME280;46331;49.252;8.904;2023-03-01T03:32:32;100544.91;;;-1.57;70.83
60489;BME280;46331;49.252;8.904;2023-03-01T03:33:13;100541.34;;;-1.56;71.26
60489;BME280;46331;49.252;8.904;2023-03-01T03:33:54;100539.56;;;-1.55;70.85
60489;BME280;46331;49.252;8.904;2023-03-01T03:34:34;100532.59;;;-1.55;70.75
60489;BME280;46331;49.252;8.904;2023-03-01T03:35:15;100532.84;;;-1.58;71.10
60489;BME280;46331;49.252;8.904;2023-03-01T03:35:55;100533.66;;;-1.57;71.25
60489;BME280;46331;49.252;8.904;2023-03-01T03:36:36;100535.47;;;-1.58;70.88
60489;BME280;46331;49.252;8.904;2023-03-01T03:37:17;100536.97;;;-1.65;71.13
60489;BME280;46331;49.252;8.904;2023-03-01T03:38:18;100531.91;;;-1.57;71.22
60489;BME280;46331;49.252;8.904;2023-03-01T03:38:59;100535.47;;;-1.58;71.34
60489;BME280;46331;49.252;8.904;2023-03-01T03:39:40;100534.50;;;-1.57;70.93
60489;BME280;46331;49.252;8.904;2023-03-01T03:40:20;100533.13;;;-1.51;70.92
60489;BME280;46331;49.252;8.904;2023-03-01T03:41:07;100536.56;;;-1.51;71.52
60489;BME280;46331;49.252;8.904;2023-03-01T03:41:48;100530.38;;;-1.50;71.36
60489;BME280;46331;49.252;8.904;2023-03-01T03:42:29;100528.75;;;-1.51;71.54
60489;BME280;46331;49.252;8.904;2023-03-01T03:43:12;100532.56;;;-1.45;71.24
60489;BME280;46331;49.252;8.904;2023-03-01T03:43:53;100532.44;;;-1.44;70.77
60489;BME280;46331;49.252;8.904;2023-03-01T03:44:34;100534.22;;;-1.44;70.99
60489;BME280;46331;49.252;8.904;2023-03-01T03:45:16;100524.91;;;-1.47;70.63
60489;BME280;46331;49.252;8.904;2023-03-01T03:45:56;100528.34;;;-1.46;70.81
60489;BME280;46331;49.252;8.904;2023-03-01T03:46:37;100532.69;;;-1.47;70.69
60489;BME280;46331;49.252;8.904;2023-03-01T03:47:17;100528.75;;;-1.51;70.56
60489;BME280;46331;49.252;8.904;2023-03-01T03:47:59;100529.44;;;-1.49;70.80
60489;BME280;46331;49.252;8.904;2023-03-01T03:48:42;100521.22;;;-1.44;70.84
60489;BME280;46331;49.252;8.904;2023-03-01T03:49:24;100524.22;;;-1.49;71.06
60489;BME280;46331;49.252;8.904;2023-03-01T03:50:04;100522.03;;;-1.44;70.59
60489;BME280;46331;49.252;8.904;2023-03-01T03:50:51;100518.47;;;-1.42;70.41
60489;BME280;46331;49.252;8.904;2023-03-01T03:51:32;100518.19;;;-1.39;70.61